createdAt,value
2022-12-25T00:03:38.382Z,100600.63
2022-12-25T00:07:40.069Z,100609.09
2022-12-25T00:11:42.100Z,100617.09
2022-12-25T00:15:43.832Z,100618.56
2022-12-25T00:19:45.872Z,100624.16
2022-12-25T00:23:47.863Z,100640.00
2022-12-25T00:27:49.793Z,100639.84
2022-12-25T00:31:51.742Z,100652.06
2022-12-25T00:36:00.688Z,100654.97
2022-12-25T00:40:02.334Z,100661.94
2022-12-25T00:44:04.646Z,100662.84
2022-12-25T00:48:06.701Z,100669.34
2022-12-25T00:52:09.316Z,100681.75
2022-12-25T00:56:10.980Z,100709.16
2022-12-25T01:00:13.624Z,100711.53
2022-12-25T01:04:15.552Z,100716.53
2022-12-25T01:08:17.489Z,100723.94
2022-12-25T01:12:19.436Z,100731.28
2022-12-25T01:16:21.825Z,100731.38
2022-12-25T01:20:23.639Z,100742.84
2022-12-25T01:24:25.610Z,100737.00
2022-12-25T01:28:27.354Z,100728.97
2022-12-25T01:32:29.299Z,100727.00
2022-12-25T01:36:31.025Z,100727.19
2022-12-25T01:40:34.888Z,100728.88
2022-12-25T01:44:36.623Z,100731.44
2022-12-25T01:48:39.716Z,100728.81
2022-12-25T01:52:41.659Z,100724.81
2022-12-25T01:56:45.533Z,100732.44
2022-12-25T02:00:47.764Z,100733.41
2022-12-25T02:05:04.788Z,100723.75
2022-12-25T02:09:06.535Z,100719.34
2022-12-25T02:13:08.580Z,100717.94
2022-12-25T02:17:18.148Z,100718.22
2022-12-25T02:21:23.095Z,100717.72
2022-12-25T02:25:42.416Z,100711.63
2022-12-25T02:30:04.818Z,100732.16
2022-12-25T02:34:33.911Z,100714.09
2022-12-25T02:39:04.355Z,100718.41
2022-12-25T02:43:35.296Z,100711.44
2022-12-25T02:47:57.411Z,100712.19
2022-12-25T02:52:23.444Z,100709.31
2022-12-25T02:56:48.112Z,100707.13
2022-12-25T03:01:12.965Z,100700.25
2022-12-25T03:05:38.126Z,100717.19
2022-12-25T03:10:28.238Z,100728.31
2022-12-25T03:14:48.821Z,100717.72
2022-12-25T03:18:50.654Z,100736.03
2022-12-25T03:23:13.061Z,100737.22
2022-12-25T03:27:14.688Z,100740.56
2022-12-25T03:31:28.363Z,100743.88
2022-12-25T03:35:47.560Z,100730.38
2022-12-25T03:40:35.715Z,100741.94
2022-12-25T03:44:55.089Z,100729.66
2022-12-25T03:49:24.050Z,100748.03
2022-12-25T03:53:54.144Z,100749.66
2022-12-25T03:58:15.488Z,100741.91
2022-12-25T04:02:35.827Z,100751.28
2022-12-25T04:06:56.374Z,100761.03
2022-12-25T04:11:16.763Z,100772.03
2022-12-25T04:15:37.538Z,100774.78
2022-12-25T04:19:58.134Z,100772.22
2022-12-25T04:24:18.761Z,100774.47
2022-12-25T04:28:39.206Z,100772.75
2022-12-25T04:32:59.793Z,100763.88
2022-12-25T04:37:01.482Z,100774.47
2022-12-25T04:41:03.794Z,100770.81
2022-12-25T04:45:05.851Z,100773.56
2022-12-25T04:49:07.832Z,100779.72
2022-12-25T04:53:09.533Z,100780.44
2022-12-25T04:57:11.505Z,100784.34
2022-12-25T05:01:13.806Z,100778.94
2022-12-25T05:05:15.834Z,100787.81
2022-12-25T05:09:17.621Z,100791.66
2022-12-25T05:13:19.601Z,100800.59
2022-12-25T05:17:21.347Z,100809.94
2022-12-25T05:21:23.405Z,100798.00
2022-12-25T05:25:25.247Z,100786.16
2022-12-25T05:29:27.244Z,100786.72
2022-12-25T05:33:28.932Z,100800.97
2022-12-25T05:37:31.248Z,100803.34
2022-12-25T05:41:34.755Z,100810.31
2022-12-25T05:45:37.005Z,100816.66
2022-12-25T05:49:38.715Z,100821.75
2022-12-25T05:53:42.118Z,100832.78
2022-12-25T05:57:43.815Z,100842.97
2022-12-25T06:01:46.878Z,100854.41
2022-12-25T06:05:48.718Z,100869.25
2022-12-25T06:09:50.676Z,100863.81
2022-12-25T06:13:53.284Z,100865.38
2022-12-25T06:17:55.481Z,100863.41
2022-12-25T06:21:57.253Z,100865.09
2022-12-25T06:25:59.716Z,100864.13
2022-12-25T06:30:01.461Z,100873.72
2022-12-25T06:34:03.556Z,100892.88
2022-12-25T06:38:05.178Z,100895.22
2022-12-25T06:42:07.313Z,100902.94
2022-12-25T06:46:12.208Z,100913.31
2022-12-25T06:50:15.106Z,100923.47
2022-12-25T06:54:16.853Z,100909.41
2022-12-25T06:58:18.789Z,100906.72
2022-12-25T07:02:23.137Z,100927.31
2022-12-25T07:06:25.803Z,100936.34
2022-12-25T07:10:27.487Z,100954.13
2022-12-25T07:14:29.674Z,100947.84
2022-12-25T07:18:32.245Z,100956.53
2022-12-25T07:22:34.162Z,100955.78
2022-12-25T07:26:35.803Z,100952.84
2022-12-25T07:30:37.804Z,100957.28
2022-12-25T07:34:39.468Z,100972.06
2022-12-25T07:38:42.395Z,100977.31
2022-12-25T07:42:44.113Z,100992.34
2022-12-25T07:46:46.176Z,100992.81
2022-12-25T07:50:47.912Z,100997.88
2022-12-25T07:54:49.963Z,101013.38
2022-12-25T07:58:51.861Z,101017.13
2022-12-25T08:02:53.679Z,101012.44
2022-12-25T08:06:55.922Z,101013.28
2022-12-25T08:10:57.927Z,101022.47
2022-12-25T08:14:59.601Z,101021.13
2022-12-25T08:19:01.663Z,101020.50
2022-12-25T08:23:04.389Z,101018.38
2022-12-25T08:27:06.324Z,101026.88
2022-12-25T08:31:16.592Z,101030.44
2022-12-25T08:35:18.626Z,101022.25
2022-12-25T08:39:20.337Z,101030.63
2022-12-25T08:43:22.394Z,101033.63
2022-12-25T08:47:24.314Z,101041.50
2022-12-25T08:51:26.477Z,101055.94
2022-12-25T08:55:28.295Z,101058.47
2022-12-25T08:59:30.808Z,101060.66
2022-12-25T09:03:32.733Z,101057.88
2022-12-25T09:07:34.801Z,101066.38
2022-12-25T09:11:36.995Z,101073.47
2022-12-25T09:15:39.879Z,101078.47
2022-12-25T09:19:42.076Z,101090.13
2022-12-25T09:23:44.270Z,101095.56
2022-12-25T09:27:46.230Z,101091.91
2022-12-25T09:31:48.212Z,101086.03
2022-12-25T09:35:59.077Z,101084.69
2022-12-25T09:40:00.735Z,101080.09
2022-12-25T09:44:11.672Z,101068.72
2022-12-25T09:48:15.579Z,101060.66
2022-12-25T09:52:22.021Z,101053.78
2022-12-25T09:56:25.909Z,101057.03
2022-12-25T10:00:40.537Z,101060.31
2022-12-25T10:04:42.207Z,101064.47
2022-12-25T10:09:02.938Z,101062.97
2022-12-25T10:13:29.167Z,101068.16
2022-12-25T10:17:37.376Z,101064.47
2022-12-25T10:21:39.615Z,101052.78
2022-12-25T10:25:42.369Z,101065.00
2022-12-25T10:29:46.456Z,101064.38
2022-12-25T10:33:50.965Z,101057.22
2022-12-25T10:37:58.804Z,101059.94
2022-12-25T10:42:38.820Z,101064.56
2022-12-25T10:46:42.579Z,101063.56
2022-12-25T10:50:44.425Z,101065.97
2022-12-25T10:54:46.508Z,101069.75
2022-12-25T10:58:48.265Z,101061.25
2022-12-25T11:02:50.983Z,101051.47
2022-12-25T11:07:06.432Z,101063.44
2022-12-25T11:11:19.721Z,101054.13
2022-12-25T11:15:30.529Z,101051.69
2022-12-25T11:19:33.112Z,101052.28
2022-12-25T11:23:34.989Z,101056.44
2022-12-25T11:27:36.976Z,101066.41
2022-12-25T11:31:43.317Z,101056.97
2022-12-25T11:35:50.633Z,101055.81
2022-12-25T11:39:52.506Z,101055.25
2022-12-25T11:43:59.450Z,101051.59
2022-12-25T11:48:13.200Z,101049.53
2022-12-25T11:52:17.969Z,101060.13
2022-12-25T11:56:25.910Z,101059.41
2022-12-25T12:00:31.453Z,101060.88
2022-12-25T12:04:42.663Z,101063.19
2022-12-25T12:08:51.384Z,101067.38
2022-12-25T12:12:57.474Z,101067.22
2022-12-25T12:17:00.393Z,101070.19
2022-12-25T12:21:11.199Z,101076.78
2022-12-25T12:25:18.088Z,101076.97
2022-12-25T12:29:25.833Z,101085.69
2022-12-25T12:33:33.371Z,101080.13
2022-12-25T12:37:40.599Z,101094.75
2022-12-25T12:41:49.733Z,101095.94
2022-12-25T12:45:56.607Z,101093.47
2022-12-25T12:50:00.380Z,101080.91
2022-12-25T12:54:22.086Z,101085.63
2022-12-25T12:58:27.676Z,101080.31
2022-12-25T13:03:18.490Z,101078.28
2022-12-25T13:07:52.502Z,101080.16
2022-12-25T13:11:54.319Z,101067.56
2022-12-25T13:15:58.000Z,101064.22
2022-12-25T13:20:01.024Z,101062.59
2022-12-25T13:24:10.590Z,101067.25
2022-12-25T13:28:14.665Z,101069.13
2022-12-25T13:32:23.222Z,101075.56
2022-12-25T13:36:26.801Z,101085.09
2022-12-25T13:40:29.110Z,101090.47
2022-12-25T13:44:39.938Z,101091.34
2022-12-25T13:48:42.782Z,101092.00
2022-12-25T13:52:44.485Z,101093.16
2022-12-25T13:56:50.651Z,101109.47
2022-12-25T14:00:55.688Z,101106.00
2022-12-25T14:04:58.143Z,101104.34
2022-12-25T14:09:00.127Z,101114.63
2022-12-25T14:13:05.879Z,101116.34
2022-12-25T14:17:10.772Z,101121.38
2022-12-25T14:21:22.816Z,101135.50
2022-12-25T14:25:40.698Z,101137.41
2022-12-25T14:29:48.012Z,101142.50
2022-12-25T14:33:51.537Z,101139.84
2022-12-25T14:38:00.037Z,101147.84
2022-12-25T14:42:13.278Z,101144.63
2022-12-25T14:46:24.006Z,101150.69
2022-12-25T14:50:29.416Z,101149.66
2022-12-25T14:54:31.405Z,101150.47
2022-12-25T14:58:41.230Z,101154.78
2022-12-25T15:02:46.410Z,101152.78
2022-12-25T15:06:53.229Z,101159.88
2022-12-25T15:11:00.505Z,101160.34
2022-12-25T15:15:03.173Z,101162.03
2022-12-25T15:19:07.271Z,101156.97
2022-12-25T15:23:19.740Z,101149.69
2022-12-25T15:27:22.354Z,101148.22
2022-12-25T15:31:29.719Z,101157.72
2022-12-25T15:35:33.310Z,101155.91
2022-12-25T15:39:34.951Z,101158.41
2022-12-25T15:43:41.066Z,101155.56
2022-12-25T15:47:43.295Z,101159.63
2022-12-25T15:51:45.387Z,101168.19
2022-12-25T15:55:47.169Z,101169.75
2022-12-25T15:59:49.216Z,101167.53
2022-12-25T16:03:50.977Z,101183.00
2022-12-25T16:07:53.147Z,101192.69
2022-12-25T16:11:54.843Z,101186.19
2022-12-25T16:15:56.872Z,101173.25
2022-12-25T16:19:58.784Z,101168.69
2022-12-25T16:24:00.943Z,101153.53
2022-12-25T16:28:03.559Z,101159.69
2022-12-25T16:32:05.543Z,101155.63
2022-12-25T16:36:07.810Z,101164.19
2022-12-25T16:40:10.278Z,101166.56
2022-12-25T16:44:12.141Z,101177.31
2022-12-25T16:48:14.375Z,101187.00
2022-12-25T16:52:16.111Z,101180.34
2022-12-25T16:56:20.674Z,101178.63
2022-12-25T17:00:22.603Z,101163.53
2022-12-25T17:04:25.365Z,101168.03
2022-12-25T17:08:27.122Z,101169.72
2022-12-25T17:12:29.159Z,101175.72
2022-12-25T17:16:35.968Z,101180.31
2022-12-25T17:20:38.169Z,101159.91
2022-12-25T17:24:41.564Z,101155.63
2022-12-25T17:28:43.491Z,101161.72
2022-12-25T17:32:45.213Z,101160.69
2022-12-25T17:36:47.892Z,101146.59
2022-12-25T17:40:57.397Z,101142.13
2022-12-25T17:45:02.621Z,101140.50
2022-12-25T17:49:05.727Z,101122.28
2022-12-25T17:53:07.433Z,101124.97
2022-12-25T17:57:09.437Z,101129.34
2022-12-25T18:01:14.085Z,101124.13
2022-12-25T18:05:16.030Z,101123.09
2022-12-25T18:09:18.858Z,101117.47
2022-12-25T18:13:20.878Z,101118.56
2022-12-25T18:17:22.593Z,101134.25
2022-12-25T18:21:24.531Z,101138.78
2022-12-25T18:25:26.348Z,101132.72
2022-12-25T18:29:28.361Z,101139.75
2022-12-25T18:33:30.082Z,101133.38
2022-12-25T18:37:37.782Z,101143.91
2022-12-25T18:42:00.231Z,101137.81
2022-12-25T18:46:03.943Z,101139.13
2022-12-25T18:50:07.131Z,101172.06
2022-12-25T18:54:10.884Z,101167.25
2022-12-25T18:58:13.602Z,101156.69
2022-12-25T19:02:17.652Z,101143.31
2022-12-25T19:06:25.744Z,101147.47
2022-12-25T19:10:28.476Z,101154.16
2022-12-25T19:14:30.417Z,101144.03
2022-12-25T19:18:49.743Z,101145.53
2022-12-25T19:22:51.524Z,101139.66
2022-12-25T19:26:53.466Z,101121.75
2022-12-25T19:30:55.224Z,101113.28
2022-12-25T19:34:57.344Z,101102.13
2022-12-25T19:38:59.214Z,101107.72
2022-12-25T19:43:01.148Z,101121.78
2022-12-25T19:47:03.065Z,101110.06
2022-12-25T19:51:14.515Z,101123.56
2022-12-25T19:55:18.626Z,101126.00
2022-12-25T19:59:20.577Z,101129.72
2022-12-25T20:03:22.386Z,101128.84
2022-12-25T20:07:24.320Z,101120.66
2022-12-25T20:11:30.744Z,101115.78
2022-12-25T20:15:32.785Z,101129.81
2022-12-25T20:19:34.627Z,101132.28
2022-12-25T20:23:36.828Z,101119.38
2022-12-25T20:27:38.581Z,101117.59
2022-12-25T20:31:40.613Z,101111.31
2022-12-25T20:35:46.462Z,101106.16
2022-12-25T20:39:48.422Z,101104.94
2022-12-25T20:43:50.957Z,101092.75
2022-12-25T20:47:54.436Z,101084.66
2022-12-25T20:52:01.396Z,101079.66
2022-12-25T20:56:09.415Z,101079.81
2022-12-25T21:00:11.638Z,101071.09
2022-12-25T21:04:16.441Z,101078.19
2022-12-25T21:08:20.178Z,101064.81
2022-12-25T21:12:22.156Z,101053.06
2022-12-25T21:16:25.222Z,101054.09
2022-12-25T21:20:26.902Z,101046.00
2022-12-25T21:24:28.941Z,101041.91
2022-12-25T21:28:32.271Z,101036.72
2022-12-25T21:32:52.972Z,101034.03
2022-12-25T21:36:54.592Z,101027.56
2022-12-25T21:41:02.352Z,101031.69
2022-12-25T21:45:04.275Z,101020.41
2022-12-25T21:49:06.611Z,101032.53
2022-12-25T21:53:08.791Z,101025.38
2022-12-25T21:57:10.766Z,101019.72
2022-12-25T22:01:16.549Z,101015.75
2022-12-25T22:05:37.900Z,101009.56
2022-12-25T22:09:39.627Z,100997.38
2022-12-25T22:14:00.211Z,101002.09
2022-12-25T22:18:20.485Z,100982.50
2022-12-25T22:22:25.402Z,100977.22
2022-12-25T22:26:28.203Z,100981.31
2022-12-25T22:30:30.221Z,100984.66
2022-12-25T22:34:32.643Z,100960.91
2022-12-25T22:38:34.996Z,100950.66
2022-12-25T22:42:37.431Z,100938.38
2022-12-25T22:46:39.442Z,100930.63
2022-12-25T22:50:41.093Z,100922.75
2022-12-25T22:54:43.081Z,100929.44
2022-12-25T22:58:44.824Z,100932.69
2022-12-25T23:02:47.405Z,100920.84
2022-12-25T23:06:49.669Z,100911.16
2022-12-25T23:10:52.123Z,100917.78
2022-12-25T23:14:53.940Z,100926.50
2022-12-25T23:19:14.699Z,100913.16
2022-12-25T23:23:35.597Z,100905.56
2022-12-25T23:27:37.597Z,100898.69
2022-12-25T23:31:41.439Z,100902.47
2022-12-25T23:35:43.534Z,100896.28
2022-12-25T23:39:45.307Z,100908.16
2022-12-25T23:43:47.356Z,100904.28
2022-12-25T23:47:49.007Z,100901.09
2022-12-25T23:51:51.321Z,100895.06
2022-12-25T23:55:55.892Z,100880.94
2022-12-25T23:59:58.075Z,100873.72
